sensor_id;sensor_type;location;lat;lon;timestamp;pressure;altitude;pressure_sealevel;temperature;humidity
57412;BME280;43247;52.828;-8.980;2023-07-20T00:00:08;101977.67;;;16.18;86.95
57412;BME280;43247;52.828;-8.980;2023-07-20T00:01:07;101976.61;;;16.17;87.00
57412;BME280;43247;52.828;-8.980;2023-07-20T00:02:08;101979.25;;;16.17;87.06
57412;BME280;43247;52.828;-8.980;2023-07-20T00:03:10;101978.37;;;16.18;87.14
57412;BME280;43247;52.828;-8.980;2023-07-20T00:04:09;101978.09;;;16.17;87.15
57412;BME280;43247;52.828;-8.980;2023-07-20T00:05:10;101978.12;;;16.17;87.13
57412;BME280;43247;52.828;-8.980;2023-07-20T00:06:10;101977.04;;;16.16;87.16
57412;BME280;43247;52.828;-8.980;2023-07-20T00:07:11;101978.52;;;16.16;87.24
57412;BME280;43247;52.828;-8.980;2023-07-20T00:08:11;101978.92;;;16.16;87.37
57412;BME280;43247;52.828;-8.980;2023-07-20T00:09:12;101978.02;;;16.16;87.32
57412;BME280;43247;52.828;-8.980;2023-07-20T00:10:12;101979.12;;;16.16;87.29
57412;BME280;43247;52.828;-8.980;2023-07-20T00:11:13;101980.60;;;16.16;87.19
57412;BME280;43247;52.828;-8.980;2023-07-20T00:12:13;101980.67;;;16.16;87.23
57412;BME280;43247;52.828;-8.980;2023-07-20T00:13:14;101980.68;;;16.16;87.27
57412;BME280;43247;52.828;-8.980;2023-07-20T00:14:14;101983.17;;;16.16;87.25
57412;BME280;43247;52.828;-8.980;2023-07-20T00:15:14;101982.82;;;16.15;87.25
57412;BME280;43247;52.828;-8.980;2023-07-20T00:16:14;101984.55;;;16.15;87.24
57412;BME280;43247;52.828;-8.980;2023-07-20T00:17:15;101982.67;;;16.15;87.13
57412;BME280;43247;52.828;-8.980;2023-07-20T00:18:15;101983.02;;;16.14;87.13
57412;BME280;43247;52.828;-8.980;2023-07-20T00:19:15;101985.97;;;16.14;87.03
57412;BME280;43247;52.828;-8.980;2023-07-20T00:20:16;101985.20;;;16.14;87.00
57412;BME280;43247;52.828;-8.980;2023-07-20T00:21:16;101984.34;;;16.14;87.05
57412;BME280;43247;52.828;-8.980;2023-07-20T00:22:16;101986.16;;;16.14;87.19
57412;BME280;43247;52.828;-8.980;2023-07-20T00:23:17;101986.20;;;16.14;87.18
57412;BME280;43247;52.828;-8.980;2023-07-20T00:24:17;101984.73;;;16.14;87.18
57412;BME280;43247;52.828;-8.980;2023-07-20T00:25:18;101984.64;;;16.14;87.28
57412;BME280;43247;52.828;-8.980;2023-07-20T00:26:18;101984.07;;;16.14;87.30
57412;BME280;43247;52.828;-8.980;2023-07-20T00:27:18;101981.82;;;16.14;87.25
57412;BME280;43247;52.828;-8.980;2023-07-20T00:28:19;101983.17;;;16.13;87.33
57412;BME280;43247;52.828;-8.980;2023-07-20T00:29:19;101983.28;;;16.13;87.26
57412;BME280;43247;52.828;-8.980;2023-07-20T00:30:19;101981.03;;;16.13;87.29
57412;BME280;43247;52.828;-8.980;2023-07-20T00:31:19;101981.27;;;16.13;87.29
57412;BME280;43247;52.828;-8.980;2023-07-20T00:32:20;101983.10;;;16.12;87.16
57412;BME280;43247;52.828;-8.980;2023-07-20T00:33:20;101981.43;;;16.12;87.15
57412;BME280;43247;52.828;-8.980;2023-07-20T00:34:20;101983.07;;;16.12;87.09
57412;BME280;43247;52.828;-8.980;2023-07-20T00:35:21;101981.09;;;16.12;87.11
57412;BME280;43247;52.828;-8.980;2023-07-20T00:36:21;101979.05;;;16.12;87.23
57412;BME280;43247;52.828;-8.980;2023-07-20T00:37:22;101981.04;;;16.12;87.39
57412;BME280;43247;52.828;-8.980;2023-07-20T00:38:22;101982.35;;;16.12;87.41
57412;BME280;43247;52.828;-8.980;2023-07-20T00:39:22;101982.20;;;16.12;87.36
57412;BME280;43247;52.828;-8.980;2023-07-20T00:40:22;101981.24;;;16.12;87.44
57412;BME280;43247;52.828;-8.980;2023-07-20T00:41:22;101980.14;;;16.13;87.47
57412;BME280;43247;52.828;-8.980;2023-07-20T00:42:23;101979.56;;;16.12;87.47
57412;BME280;43247;52.828;-8.980;2023-07-20T00:43:23;101978.65;;;16.12;87.57
57412;BME280;43247;52.828;-8.980;2023-07-20T00:44:23;101979.47;;;16.12;87.53
57412;BME280;43247;52.828;-8.980;2023-07-20T00:45:27;101979.10;;;16.11;87.56
57412;BME280;43247;52.828;-8.980;2023-07-20T00:46:24;101978.31;;;16.11;87.64
57412;BME280;43247;52.828;-8.980;2023-07-20T00:47:24;101978.13;;;16.10;87.69
57412;BME280;43247;52.828;-8.980;2023-07-20T00:48:25;101979.28;;;16.10;87.70
57412;BME280;43247;52.828;-8.980;2023-07-20T00:49:25;101979.46;;;16.10;87.57
57412;BME280;43247;52.828;-8.980;2023-07-20T00:50:26;101978.37;;;16.10;87.56
57412;BME280;43247;52.828;-8.980;2023-07-20T00:51:26;101978.96;;;16.10;87.57
57412;BME280;43247;52.828;-8.980;2023-07-20T00:52:28;101979.57;;;16.10;87.52
57412;BME280;43247;52.828;-8.980;2023-07-20T00:53:26;101979.68;;;16.09;87.54
57412;BME280;43247;52.828;-8.980;2023-07-20T00:54:27;101976.20;;;16.09;87.61
57412;BME280;43247;52.828;-8.980;2023-07-20T00:55:28;101977.30;;;16.09;87.54
57412;BME280;43247;52.828;-8.980;2023-07-20T00:56:28;101978.10;;;16.09;87.65
57412;BME280;43247;52.828;-8.980;2023-07-20T00:57:28;101977.48;;;16.09;87.49
57412;BME280;43247;52.828;-8.980;2023-07-20T00:58:29;101976.75;;;16.08;87.44
57412;BME280;43247;52.828;-8.980;2023-07-20T00:59:29;101976.87;;;16.08;87.47
57412;BME280;43247;52.828;-8.980;2023-07-20T01:00:29;101976.62;;;16.07;87.47
57412;BME280;43247;52.828;-8.980;2023-07-20T01:01:29;101975.67;;;16.07;87.39
57412;BME280;43247;52.828;-8.980;2023-07-20T01:02:30;101974.95;;;16.07;87.45
57412;BME280;43247;52.828;-8.980;2023-07-20T01:03:30;101975.59;;;16.06;87.59
57412;BME280;43247;52.828;-8.980;2023-07-20T01:04:30;101977.46;;;16.07;87.57
57412;BME280;43247;52.828;-8.980;2023-07-20T01:05:38;101978.47;;;16.07;87.35
57412;BME280;43247;52.828;-8.980;2023-07-20T01:06:38;101977.08;;;16.08;87.19
57412;BME280;43247;52.828;-8.980;2023-07-20T01:07:34;101975.74;;;16.09;86.90
57412;BME280;43247;52.828;-8.980;2023-07-20T01:09:36;101976.83;;;16.11;86.53
57412;BME280;43247;52.828;-8.980;2023-07-20T01:10:38;101976.40;;;16.11;86.55
57412;BME280;43247;52.828;-8.980;2023-07-20T01:11:38;101976.16;;;16.12;86.48
57412;BME280;43247;52.828;-8.980;2023-07-20T01:12:41;101974.95;;;16.12;86.37
57412;BME280;43247;52.828;-8.980;2023-07-20T01:13:34;101975.36;;;16.12;86.34
57412;BME280;43247;52.828;-8.980;2023-07-20T01:14:34;101975.32;;;16.12;86.47
57412;BME280;43247;52.828;-8.980;2023-07-20T01:15:35;101973.61;;;16.13;86.31
57412;BME280;43247;52.828;-8.980;2023-07-20T01:16:35;101973.25;;;16.12;86.37
57412;BME280;43247;52.828;-8.980;2023-07-20T01:17:35;101973.35;;;16.13;86.38
57412;BME280;43247;52.828;-8.980;2023-07-20T01:18:36;101972.22;;;16.13;86.43
57412;BME280;43247;52.828;-8.980;2023-07-20T01:19:36;101974.02;;;16.13;86.41
57412;BME280;43247;52.828;-8.980;2023-07-20T01:20:37;101974.66;;;16.13;86.40
57412;BME280;43247;52.828;-8.980;2023-07-20T01:21:42;101970.80;;;16.12;86.46
57412;BME280;43247;52.828;-8.980;2023-07-20T01:22:50;101971.46;;;16.12;86.32
57412;BME280;43247;52.828;-8.980;2023-07-20T01:23:55;101970.91;;;16.12;86.40
57412;BME280;43247;52.828;-8.980;2023-07-20T01:26:48;101970.16;;;16.11;86.71
57412;BME280;43247;52.828;-8.980;2023-07-20T01:28:53;101967.30;;;16.11;86.76
57412;BME280;43247;52.828;-8.980;2023-07-20T01:29:53;101967.61;;;16.10;86.84
57412;BME280;43247;52.828;-8.980;2023-07-20T01:30:47;101965.01;;;16.09;86.82
57412;BME280;43247;52.828;-8.980;2023-07-20T01:31:41;101964.78;;;16.10;86.82
57412;BME280;43247;52.828;-8.980;2023-07-20T01:32:41;101963.44;;;16.10;86.83
57412;BME280;43247;52.828;-8.980;2023-07-20T01:33:41;101962.12;;;16.09;86.82
57412;BME280;43247;52.828;-8.980;2023-07-20T01:34:41;101962.97;;;16.09;86.85
57412;BME280;43247;52.828;-8.980;2023-07-20T01:35:41;101961.48;;;16.08;86.80
57412;BME280;43247;52.828;-8.980;2023-07-20T01:36:41;101962.90;;;16.08;86.78
57412;BME280;43247;52.828;-8.980;2023-07-20T01:37:42;101962.33;;;16.08;86.79
57412;BME280;43247;52.828;-8.980;2023-07-20T01:38:42;101962.78;;;16.08;86.81
57412;BME280;43247;52.828;-8.980;2023-07-20T01:39:42;101961.87;;;16.07;86.84
57412;BME280;43247;52.828;-8.980;2023-07-20T01:40:43;101963.72;;;16.07;86.82
57412;BME280;43247;52.828;-8.980;2023-07-20T01:41:43;101962.47;;;16.09;86.19
57412;BME280;43247;52.828;-8.980;2023-07-20T01:42:45;101961.51;;;16.08;85.63
57412;BME280;43247;52.828;-8.980;2023-07-20T01:43:43;101961.58;;;16.09;85.03
57412;BME280;43247;52.828;-8.980;2023-07-20T01:44:44;101960.46;;;16.10;85.03
57412;BME280;43247;52.828;-8.980;2023-07-20T01:45:44;101960.58;;;16.11;84.68
57412;BME280;43247;52.828;-8.980;2023-07-20T01:46:44;101957.79;;;16.11;84.79
57412;BME280;43247;52.828;-8.980;2023-07-20T01:47:44;101957.34;;;16.12;84.60
57412;BME280;43247;52.828;-8.980;2023-07-20T01:48:45;101956.98;;;16.11;84.83
57412;BME280;43247;52.828;-8.980;2023-07-20T01:49:45;101956.41;;;16.11;84.49
57412;BME280;43247;52.828;-8.980;2023-07-20T01:50:46;101955.08;;;16.11;84.57
57412;BME280;43247;52.828;-8.980;2023-07-20T01:51:46;101954.26;;;16.12;84.86
57412;BME280;43247;52.828;-8.980;2023-07-20T01:52:46;101954.61;;;16.12;84.89
57412;BME280;43247;52.828;-8.980;2023-07-20T01:53:47;101952.79;;;16.11;84.71
57412;BME280;43247;52.828;-8.980;2023-07-20T01:54:47;101952.50;;;16.11;84.92
57412;BME280;43247;52.828;-8.980;2023-07-20T01:55:48;101952.24;;;16.11;85.11
57412;BME280;43247;52.828;-8.980;2023-07-20T01:56:49;101950.92;;;16.09;85.20
57412;BME280;43247;52.828;-8.980;2023-07-20T01:57:49;101951.08;;;16.09;85.24
57412;BME280;43247;52.828;-8.980;2023-07-20T01:58:50;101951.45;;;16.08;85.26
57412;BME280;43247;52.828;-8.980;2023-07-20T01:59:50;101952.02;;;16.08;85.22
57412;BME280;43247;52.828;-8.980;2023-07-20T02:00:51;101952.15;;;16.08;85.19
57412;BME280;43247;52.828;-8.980;2023-07-20T02:01:52;101952.22;;;16.08;85.26
57412;BME280;43247;52.828;-8.980;2023-07-20T02:02:51;101953.81;;;16.08;85.18
57412;BME280;43247;52.828;-8.980;2023-07-20T02:03:52;101953.85;;;16.07;85.34
57412;BME280;43247;52.828;-8.980;2023-07-20T02:04:52;101954.51;;;16.07;85.34
57412;BME280;43247;52.828;-8.980;2023-07-20T02:05:52;101951.41;;;16.07;85.34
57412;BME280;43247;52.828;-8.980;2023-07-20T02:06:53;101951.20;;;16.06;85.37
57412;BME280;43247;52.828;-8.980;2023-07-20T02:07:53;101951.26;;;16.05;85.43
57412;BME280;43247;52.828;-8.980;2023-07-20T02:08:53;101950.69;;;16.04;85.47
57412;BME280;43247;52.828;-8.980;2023-07-20T02:09:53;101950.60;;;16.04;85.50
57412;BME280;43247;52.828;-8.980;2023-07-20T02:10:53;101949.68;;;16.03;85.57
57412;BME280;43247;52.828;-8.980;2023-07-20T02:11:54;101948.69;;;16.02;85.51
57412;BME280;43247;52.828;-8.980;2023-07-20T02:12:54;101948.85;;;16.02;85.55
57412;BME280;43247;52.828;-8.980;2023-07-20T02:13:55;101950.59;;;16.02;85.65
57412;BME280;43247;52.828;-8.980;2023-07-20T02:14:55;101948.35;;;16.01;85.66
57412;BME280;43247;52.828;-8.980;2023-07-20T02:15:56;101947.90;;;16.01;85.72
57412;BME280;43247;52.828;-8.980;2023-07-20T02:16:57;101948.64;;;16.00;85.71
57412;BME280;43247;52.828;-8.980;2023-07-20T02:17:57;101948.54;;;16.00;85.76
57412;BME280;43247;52.828;-8.980;2023-07-20T02:18:57;101946.22;;;15.99;85.76
57412;BME280;43247;52.828;-8.980;2023-07-20T02:19:58;101947.21;;;15.99;85.92
57412;BME280;43247;52.828;-8.980;2023-07-20T02:20:58;101945.24;;;15.98;85.80
57412;BME280;43247;52.828;-8.980;2023-07-20T02:21:58;101945.70;;;15.97;85.92
57412;BME280;43247;52.828;-8.980;2023-07-20T02:22:59;101945.42;;;15.96;85.98
57412;BME280;43247;52.828;-8.980;2023-07-20T02:23:59;101946.04;;;15.95;86.04
57412;BME280;43247;52.828;-8.980;2023-07-20T02:25:00;101943.06;;;15.95;85.99
57412;BME280;43247;52.828;-8.980;2023-07-20T02:26:00;101943.86;;;15.93;86.08
57412;BME280;43247;52.828;-8.980;2023-07-20T02:27:01;101944.78;;;15.93;86.04
57412;BME280;43247;52.828;-8.980;2023-07-20T02:28:03;101943.74;;;15.92;86.05
57412;BME280;43247;52.828;-8.980;2023-07-20T02:29:01;101944.10;;;15.92;86.27
57412;BME280;43247;52.828;-8.980;2023-07-20T02:30:04;101941.58;;;15.91;86.12
57412;BME280;43247;52.828;-8.980;2023-07-20T02:31:03;101940.31;;;15.91;86.17
57412;BME280;43247;52.828;-8.980;2023-07-20T02:32:04;101940.67;;;15.91;86.33
57412;BME280;43247;52.828;-8.980;2023-07-20T02:33:04;101940.38;;;15.90;86.37
57412;BME280;43247;52.828;-8.980;2023-07-20T02:34:05;101938.57;;;15.89;86.44
57412;BME280;43247;52.828;-8.980;2023-07-20T02:35:05;101939.67;;;15.89;86.47
57412;BME280;43247;52.828;-8.980;2023-07-20T02:36:05;101941.90;;;15.88;86.47
57412;BME280;43247;52.828;-8.980;2023-07-20T02:37:05;101941.60;;;15.87;86.39
57412;BME280;43247;52.828;-8.980;2023-07-20T02:38:05;101941.20;;;15.87;86.46
57412;BME280;43247;52.828;-8.980;2023-07-20T02:39:05;101940.02;;;15.87;86.50
57412;BME280;43247;52.828;-8.980;2023-07-20T02:40:07;101940.73;;;15.87;86.41
57412;BME280;43247;52.828;-8.980;2023-07-20T02:41:06;101940.10;;;15.86;86.53
57412;BME280;43247;52.828;-8.980;2023-07-20T02:42:07;101938.98;;;15.86;86.50
57412;BME280;43247;52.828;-8.980;2023-07-20T02:43:07;101937.51;;;15.86;86.55
57412;BME280;43247;52.828;-8.980;2023-07-20T02:44:07;101937.61;;;15.85;86.52
57412;BME280;43247;52.828;-8.980;2023-07-20T02:45:08;101935.86;;;15.85;86.53
57412;BME280;43247;52.828;-8.980;2023-07-20T02:46:07;101935.57;;;15.84;86.62
57412;BME280;43247;52.828;-8.980;2023-07-20T02:47:08;101934.04;;;15.84;86.68
57412;BME280;43247;52.828;-8.980;2023-07-20T02:48:08;101930.89;;;15.84;86.53
57412;BME280;43247;52.828;-8.980;2023-07-20T02:49:09;101930.83;;;15.83;86.56
57412;BME280;43247;52.828;-8.980;2023-07-20T02:50:10;101929.79;;;15.83;86.52
57412;BME280;43247;52.828;-8.980;2023-07-20T02:51:10;101928.67;;;15.83;86.60
57412;BME280;43247;52.828;-8.980;2023-07-20T02:52:10;101928.41;;;15.83;86.56
57412;BME280;43247;52.828;-8.980;2023-07-20T02:53:10;101925.99;;;15.83;86.63
57412;BME280;43247;52.828;-8.980;2023-07-20T02:54:11;101924.65;;;15.83;86.69
57412;BME280;43247;52.828;-8.980;2023-07-20T02:55:11;101924.37;;;15.83;86.72
57412;BME280;43247;52.828;-8.980;2023-07-20T02:56:12;101923.95;;;15.82;86.70
57412;BME280;43247;52.828;-8.980;2023-07-20T02:57:12;101923.34;;;15.82;86.12
57412;BME280;43247;52.828;-8.980;2023-07-20T02:58:13;101926.05;;;15.82;85.63
57412;BME280;43247;52.828;-8.980;2023-07-20T02:59:13;101925.35;;;15.83;85.25
57412;BME280;43247;52.828;-8.980;2023-07-20T03:00:14;101925.87;;;15.84;85.12
57412;BME280;43247;52.828;-8.980;2023-07-20T03:01:14;101927.15;;;15.85;84.87
57412;BME280;43247;52.828;-8.980;2023-07-20T03:02:14;101927.41;;;15.86;84.75
57412;BME280;43247;52.828;-8.980;2023-07-20T03:03:14;101927.98;;;15.86;84.70
57412;BME280;43247;52.828;-8.980;2023-07-20T03:04:15;101928.03;;;15.86;84.69
57412;BME280;43247;52.828;-8.980;2023-07-20T03:05:15;101930.30;;;15.86;84.88
57412;BME280;43247;52.828;-8.980;2023-07-20T03:06:15;101930.87;;;15.86;84.90
57412;BME280;43247;52.828;-8.980;2023-07-20T03:07:15;101931.05;;;15.86;84.90
57412;BME280;43247;52.828;-8.980;2023-07-20T03:08:15;101930.43;;;15.86;84.88
57412;BME280;43247;52.828;-8.980;2023-07-20T03:09:15;101930.69;;;15.86;84.94
57412;BME280;43247;52.828;-8.980;2023-07-20T03:10:16;101932.56;;;15.85;84.94
57412;BME280;43247;52.828;-8.980;2023-07-20T03:11:16;101932.01;;;15.86;85.07
57412;BME280;43247;52.828;-8.980;2023-07-20T03:12:16;101933.42;;;15.85;85.08
57412;BME280;43247;52.828;-8.980;2023-07-20T03:13:17;101934.87;;;15.85;85.15
57412;BME280;43247;52.828;-8.980;2023-07-20T03:14:17;101933.86;;;15.85;85.29
57412;BME280;43247;52.828;-8.980;2023-07-20T03:15:18;101932.12;;;15.84;85.23
57412;BME280;43247;52.828;-8.980;2023-07-20T03:16:19;101930.54;;;15.84;85.35
57412;BME280;43247;52.828;-8.980;2023-07-20T03:17:19;101927.74;;;15.83;85.18
57412;BME280;43247;52.828;-8.980;2023-07-20T03:18:20;101926.18;;;15.83;85.32
57412;BME280;43247;52.828;-8.980;2023-07-20T03:19:20;101926.65;;;15.82;85.32
57412;BME280;43247;52.828;-8.980;2023-07-20T03:20:20;101924.62;;;15.82;85.50
57412;BME280;43247;52.828;-8.980;2023-07-20T03:21:20;101923.82;;;15.81;85.54
57412;BME280;43247;52.828;-8.980;2023-07-20T03:22:20;101922.51;;;15.81;85.53
57412;BME280;43247;52.828;-8.980;2023-07-20T03:23:21;101919.81;;;15.81;85.46
57412;BME280;43247;52.828;-8.980;2023-07-20T03:24:21;101920.62;;;15.80;85.58
57412;BME280;43247;52.828;-8.980;2023-07-20T03:25:21;101919.93;;;15.79;85.59
57412;BME280;43247;52.828;-8.980;2023-07-20T03:26:22;101921.65;;;15.79;85.72
57412;BME280;43247;52.828;-8.980;2023-07-20T03:27:23;101920.13;;;15.78;85.69
57412;BME280;43247;52.828;-8.980;2023-07-20T03:28:23;101920.01;;;15.77;85.61
57412;BME280;43247;52.828;-8.980;2023-07-20T03:29:23;101921.29;;;15.76;85.35
57412;BME280;43247;52.828;-8.980;2023-07-20T03:30:24;101922.66;;;15.77;84.19
57412;BME280;43247;52.828;-8.980;2023-07-20T03:31:24;101920.22;;;15.79;83.42
57412;BME280;43247;52.828;-8.980;2023-07-20T03:32:24;101918.25;;;15.79;82.79
57412;BME280;43247;52.828;-8.980;2023-07-20T03:33:27;101920.24;;;15.79;83.18
57412;BME280;43247;52.828;-8.980;2023-07-20T03:34:25;101918.18;;;15.80;82.84
57412;BME280;43247;52.828;-8.980;2023-07-20T03:35:26;101919.08;;;15.80;82.94
57412;BME280;43247;52.828;-8.980;2023-07-20T03:36:26;101917.77;;;15.80;83.51
57412;BME280;43247;52.828;-8.980;2023-07-20T03:37:27;101916.88;;;15.80;83.56
57412;BME280;43247;52.828;-8.980;2023-07-20T03:38:28;101918.04;;;15.80;83.24
57412;BME280;43247;52.828;-8.980;2023-07-20T03:39:28;101920.70;;;15.80;83.90
57412;BME280;43247;52.828;-8.980;2023-07-20T03:40:28;101920.77;;;15.80;83.38
57412;BME280;43247;52.828;-8.980;2023-07-20T03:41:29;101920.33;;;15.79;83.71
57412;BME280;43247;52.828;-8.980;2023-07-20T03:42:29;101920.97;;;15.79;83.99
57412;BME280;43247;52.828;-8.980;2023-07-20T03:43:29;101921.41;;;15.78;83.88
57412;BME280;43247;52.828;-8.980;2023-07-20T03:44:29;101920.48;;;15.78;84.35
57412;BME280;43247;52.828;-8.980;2023-07-20T03:45:29;101920.04;;;15.77;84.29
57412;BME280;43247;52.828;-8.980;2023-07-20T03:46:30;101919.52;;;15.76;84.58
57412;BME280;43247;52.828;-8.980;2023-07-20T03:47:30;101921.89;;;15.75;84.57
57412;BME280;43247;52.828;-8.980;2023-07-20T03:48:30;101922.10;;;15.74;84.54
57412;BME280;43247;52.828;-8.980;2023-07-20T03:49:31;101920.73;;;15.73;84.73
57412;BME280;43247;52.828;-8.980;2023-07-20T03:50:31;101919.64;;;15.72;84.50
57412;BME280;43247;52.828;-8.980;2023-07-20T03:51:32;101918.70;;;15.72;84.49
57412;BME280;43247;52.828;-8.980;2023-07-20T03:52:32;101918.15;;;15.71;84.64
57412;BME280;43247;52.828;-8.980;2023-07-20T03:53:32;101918.56;;;15.70;84.85
57412;BME280;43247;52.828;-8.980;2023-07-20T03:54:33;101920.32;;;15.69;84.87
57412;BME280;43247;52.828;-8.980;2023-07-20T03:55:33;101920.81;;;15.69;84.95
57412;BME280;43247;52.828;-8.980;2023-07-20T03:56:33;101921.39;;;15.68;84.94
57412;BME280;43247;52.828;-8.980;2023-07-20T03:57:34;101921.12;;;15.67;85.01
57412;BME280;43247;52.828;-8.980;2023-07-20T03:58:34;101920.92;;;15.67;85.01
57412;BME280;43247;52.828;-8.980;2023-07-20T03:59:36;101918.93;;;15.66;85.10
57412;BME280;43247;52.828;-8.980;2023-07-20T04:00:35;101918.67;;;15.66;85.22
57412;BME280;43247;52.828;-8.980;2023-07-20T04:01:35;101922.86;;;15.65;85.36
57412;BME280;43247;52.828;-8.980;2023-07-20T04:02:36;101922.78;;;15.65;85.43
57412;BME280;43247;52.828;-8.980;2023-07-20T04:03:36;101923.18;;;15.64;85.55
57412;BME280;43247;52.828;-8.980;2023-07-20T04:04:37;101922.93;;;15.63;85.63
57412;BME280;43247;52.828;-8.980;2023-07-20T04:05:37;101924.92;;;15.63;85.54
57412;BME280;43247;52.828;-8.980;2023-07-20T04:06:38;101924.49;;;15.62;85.58
57412;BME280;43247;52.828;-8.980;2023-07-20T04:07:39;101925.00;;;15.61;85.56
57412;BME280;43247;52.828;-8.980;2023-07-20T04:08:39;101924.35;;;15.60;85.62
57412;BME280;43247;52.828;-8.980;2023-07-20T04:09:40;101923.88;;;15.59;85.85
57412;BME280;43247;52.828;-8.980;2023-07-20T04:10:43;101924.84;;;15.59;85.81
57412;BME280;43247;52.828;-8.980;2023-07-20T04:11:41;101927.34;;;15.59;85.81
57412;BME280;43247;52.828;-8.980;2023-07-20T04:12:41;101929.53;;;15.59;85.97
57412;BME280;43247;52.828;-8.980;2023-07-20T04:13:42;101927.95;;;15.58;85.93
57412;BME280;43247;52.828;-8.980;2023-07-20T04:14:42;101927.99;;;15.58;85.94
57412;BME280;43247;52.828;-8.980;2023-07-20T04:15:42;101929.84;;;15.57;86.04
57412;BME280;43247;52.828;-8.980;2023-07-20T04:16:43;101930.51;;;15.57;86.03
57412;BME280;43247;52.828;-8.980;2023-07-20T04:17:45;101932.34;;;15.56;86.06
57412;BME280;43247;52.828;-8.980;2023-07-20T04:18:43;101933.43;;;15.56;86.08
57412;BME280;43247;52.828;-8.980;2023-07-20T04:19:44;101931.95;;;15.55;86.06
57412;BME280;43247;52.828;-8.980;2023-07-20T04:20:45;101933.72;;;15.55;86.12
57412;BME280;43247;52.828;-8.980;2023-07-20T04:21:44;101931.38;;;15.54;86.10
57412;BME280;43247;52.828;-8.980;2023-07-20T04:22:45;101931.97;;;15.54;86.12
57412;BME280;43247;52.828;-8.980;2023-07-20T04:23:45;101931.59;;;15.53;86.16
57412;BME280;43247;52.828;-8.980;2023-07-20T04:24:45;101931.02;;;15.53;86.22
57412;BME280;43247;52.828;-8.980;2023-07-20T04:25:46;101927.64;;;15.52;86.47
57412;BME280;43247;52.828;-8.980;2023-07-20T04:26:47;101927.09;;;15.52;86.41
57412;BME280;43247;52.828;-8.980;2023-07-20T04:27:47;101926.68;;;15.52;86.37
57412;BME280;43247;52.828;-8.980;2023-07-20T04:28:48;101923.88;;;15.51;86.46
57412;BME280;43247;52.828;-8.980;2023-07-20T04:29:48;101924.99;;;15.51;86.46
57412;BME280;43247;52.828;-8.980;2023-07-20T04:30:49;101922.10;;;15.51;86.54
57412;BME280;43247;52.828;-8.980;2023-07-20T04:31:49;101922.53;;;15.51;86.54
57412;BME280;43247;52.828;-8.980;2023-07-20T04:32:49;101919.96;;;15.51;86.53
57412;BME280;43247;52.828;-8.980;2023-07-20T04:33:49;101919.82;;;15.50;86.58
57412;BME280;43247;52.828;-8.980;2023-07-20T04:34:49;101919.96;;;15.50;86.64
57412;BME280;43247;52.828;-8.980;2023-07-20T04:35:51;101921.02;;;15.49;86.83
57412;BME280;43247;52.828;-8.980;2023-07-20T04:36:50;101920.54;;;15.49;86.69
57412;BME280;43247;52.828;-8.980;2023-07-20T04:37:50;101921.62;;;15.48;86.80
57412;BME280;43247;52.828;-8.980;2023-07-20T04:38:51;101922.39;;;15.48;86.76
57412;BME280;43247;52.828;-8.980;2023-07-20T04:39:52;101922.55;;;15.48;86.72
57412;BME280;43247;52.828;-8.980;2023-07-20T04:40:52;101922.76;;;15.48;86.82
57412;BME280;43247;52.828;-8.980;2023-07-20T04:41:52;101922.44;;;15.48;86.83
57412;BME280;43247;52.828;-8.980;2023-07-20T04:42:53;101922.69;;;15.47;86.89
57412;BME280;43247;52.828;-8.980;2023-07-20T04:43:53;101922.41;;;15.47;86.83
57412;BME280;43247;52.828;-8.980;2023-07-20T04:44:53;101921.80;;;15.46;87.06
57412;BME280;43247;52.828;-8.980;2023-07-20T04:45:54;101922.79;;;15.46;86.94
57412;BME280;43247;52.828;-8.980;2023-07-20T04:46:55;101922.66;;;15.45;86.92
57412;BME280;43247;52.828;-8.980;2023-07-20T04:47:55;101921.00;;;15.44;87.02
57412;BME280;43247;52.828;-8.980;2023-07-20T04:48:55;101919.88;;;15.44;87.02
57412;BME280;43247;52.828;-8.980;2023-07-20T04:49:56;101920.21;;;15.43;87.03
57412;BME280;43247;52.828;-8.980;2023-07-20T04:50:56;101921.24;;;15.43;87.09
57412;BME280;43247;52.828;-8.980;2023-07-20T04:51:56;101922.19;;;15.43;87.15
57412;BME280;43247;52.828;-8.980;2023-07-20T04:52:57;101922.06;;;15.43;87.09
57412;BME280;43247;52.828;-8.980;2023-07-20T04:53:57;101921.57;;;15.43;87.14
57412;BME280;43247;52.828;-8.980;2023-07-20T04:54:57;101924.00;;;15.43;87.23
57412;BME280;43247;52.828;-8.980;2023-07-20T04:55:58;101924.86;;;15.43;87.18
57412;BME280;43247;52.828;-8.980;2023-07-20T04:56:58;101925.69;;;15.42;87.24
57412;BME280;43247;52.828;-8.980;2023-07-20T04:57:58;101925.18;;;15.42;87.25
57412;BME280;43247;52.828;-8.980;2023-07-20T04:58:59;101924.46;;;15.41;87.19
57412;BME280;43247;52.828;-8.980;2023-07-20T04:59:58;101925.54;;;15.40;87.28
57412;BME280;43247;52.828;-8.980;2023-07-20T05:00:59;101923.84;;;15.40;87.37
57412;BME280;43247;52.828;-8.980;2023-07-20T05:01:59;101925.38;;;15.40;87.30
57412;BME280;43247;52.828;-8.980;2023-07-20T05:02:59;101924.83;;;15.40;87.41
57412;BME280;43247;52.828;-8.980;2023-07-20T05:04:00;101925.50;;;15.39;87.39
57412;BME280;43247;52.828;-8.980;2023-07-20T05:05:00;101925.53;;;15.39;87.51
57412;BME280;43247;52.828;-8.980;2023-07-20T05:06:01;101924.98;;;15.39;87.48
57412;BME280;43247;52.828;-8.980;2023-07-20T05:07:02;101924.72;;;15.39;87.39
57412;BME280;43247;52.828;-8.980;2023-07-20T05:08:04;101923.06;;;15.39;87.35
57412;BME280;43247;52.828;-8.980;2023-07-20T05:09:03;101924.02;;;15.38;87.46
57412;BME280;43247;52.828;-8.980;2023-07-20T05:10:04;101924.42;;;15.38;87.44
57412;BME280;43247;52.828;-8.980;2023-07-20T05:11:04;101924.18;;;15.38;87.38
57412;BME280;43247;52.828;-8.980;2023-07-20T05:12:05;101924.22;;;15.38;87.38
57412;BME280;43247;52.828;-8.980;2023-07-20T05:13:04;101927.59;;;15.38;87.41
57412;BME280;43247;52.828;-8.980;2023-07-20T05:14:05;101925.70;;;15.38;87.36
57412;BME280;43247;52.828;-8.980;2023-07-20T05:15:06;101926.07;;;15.37;87.30